Kinkaid, Illinois
Current Conditions -  °F | °C
As of 5:52 AM on Saturday 25 Oct 2014 (Local Time) from KMDH Reporting Station
Scattered Clouds Scattered Clouds  
Wind Chill: 54°   Ceiling: Unl
Heat Index: 54°   Visibility: 9mi
Dew Point: 52°   Wind: 0mph
Humidity: 93%   Direction: NA
Pressure: 30.02"   Gusts: NA
Location:  37.8835°N, 89.4465°W
Report Text: KMDH 251052Z AUTO 00000KT 9SM SCT042 12/11 A3002 RMK AO2 SLP163 T01220111
Loading
Personal Weather Stations






























Interactive Weather Map New forecast layout! Learn more

10-Day Weather Forecast

Advertisements
Track Severe Weather on mobile